Pelion, SC

12:28 AM EST on December 26, 2014 (GMT -0500)
Pendleton Field | Change Station
CLOSE
Current Station
Personal Weather Station
Location: Swansea, SC
Elevation: 354 ft
Nearby Weather Stations

Elev 354 ft 33.69 °N, 81.23 °W | Updated 0 second ago

Clear
Clear
32.2 °F
Feels Like 32 °F
N
0.0
Wind Variable Wind from North
Gusts 0.0 mph

Today
High -- | Low -- °F
--% Chance of Precip.
Yesterday
High -- | Low -- °F
Precip. -- in
7:28 AM 5:23 PM
Waxing Crescent, 22% visible
Pressure 30.26 in
Visibility 10.0 miles
Clouds Few 20000 ft
Windchill 32 °F
Dew Point 30 °F
Humidity 92%
Rainfall 0.00 in
Snow Depth Not available.
UV 0 out of 12
Pollen 2.00 out of 12
Air Quality Not available.
Flu Activity Not available.
METAR KCAE 260456Z 00000KT 10SM FEW200 02/01 A3026 RMK AO2 SLP246 T00220006 401560022

More Conditions Fewer Conditions

Pressure 30.26 in
Visibility 10.0 miles
Clouds Few 20000 ft
Windchill 32 °F
Dew Point 30 °F
Humidity 92%
Rainfall 0.00 in
Snow Depth Not available.
UV 0 out of 12
Pollen 2.00 out of 12
Air Quality Not available.
Flu Activity Not available.
METAR KCAE 260456Z 00000KT 10SM FEW200 02/01 A3026 RMK AO2 SLP246 T00220006 401560022

More Conditions Fewer Conditions

10-Day Weather Forecast

Almanac

Astronomy

Dec. 26, 2014 Rise Set
Actual Time
Civil Twilight
Nautical Twilight
Astronomical Twilight
Moon
Length of Visible Light
Length of Day
Tomorrow will be .
, % of the Moon is Illuminated

Today's Extremes

State Highs State Lows

Community

WunderPhotos

Upload Photos

1,780,548 photos uploaded!

WunderBlogs® & News

Nearby

Air Quality

  Air Quality AQ Index Pollutant
Not available.

Snow Depth

Station Depth Elevation

Earthquake Activity

City Distance Mag. Time & Date
Minimum magnitude displayed is 2.5.

Coastal Water Temperatures

Place Temperature

Nearby Weather Stations